createdAt,value
2024-03-16T00:01:43.188Z,3.63
2024-03-16T00:04:12.680Z,2.72
2024-03-16T00:06:42.036Z,1.88
2024-03-16T00:09:12.173Z,1.13
2024-03-16T00:11:41.372Z,1.17
2024-03-16T00:14:10.845Z,1.30
2024-03-16T00:16:40.045Z,1.02
2024-03-16T00:19:09.540Z,0.90
2024-03-16T00:21:39.065Z,2.85
2024-03-16T00:24:09.600Z,4.72
2024-03-16T00:26:39.049Z,2.17
2024-03-16T00:29:08.809Z,2.70
2024-03-16T00:31:38.110Z,1.95
2024-03-16T00:34:07.460Z,1.30
2024-03-16T00:36:36.832Z,1.98
2024-03-16T00:39:16.844Z,2.03
2024-03-16T00:41:46.471Z,2.05
2024-03-16T00:45:24.498Z,2.25
2024-03-16T00:47:57.478Z,1.92
2024-03-16T00:50:27.040Z,1.63
2024-03-16T00:52:56.308Z,2.17
2024-03-16T00:55:25.916Z,1.48
2024-03-16T00:57:55.197Z,1.42
2024-03-16T01:00:24.852Z,1.75
2024-03-16T01:02:54.211Z,2.42
2024-03-16T01:05:23.511Z,2.00
2024-03-16T01:07:52.732Z,2.17
2024-03-16T01:10:22.607Z,3.13
2024-03-16T01:12:51.940Z,1.95
2024-03-16T01:15:22.296Z,1.77
2024-03-16T01:17:51.701Z,2.30
2024-03-16T01:20:21.889Z,2.83
2024-03-16T01:22:51.188Z,1.88
2024-03-16T01:25:20.936Z,2.22
2024-03-16T01:27:50.218Z,2.10
2024-03-16T01:30:22.955Z,2.10
2024-03-16T01:32:52.239Z,1.90
2024-03-16T01:35:22.121Z,2.35
2024-03-16T01:37:52.507Z,2.30
2024-03-16T01:40:26.141Z,2.50
2024-03-16T01:42:56.059Z,2.00
2024-03-16T01:45:25.514Z,1.92
2024-03-16T01:47:56.440Z,1.67
2024-03-16T01:50:26.223Z,1.98
2024-03-16T01:52:55.509Z,1.50
2024-03-16T01:55:24.824Z,1.83
2024-03-16T01:57:54.205Z,2.03
2024-03-16T02:00:23.459Z,1.85
2024-03-16T02:02:52.750Z,0.98
2024-03-16T02:05:22.057Z,1.60
2024-03-16T02:07:51.420Z,1.17
2024-03-16T02:10:20.672Z,2.13
2024-03-16T02:12:50.402Z,1.83
2024-03-16T02:15:19.710Z,1.52
2024-03-16T02:17:49.194Z,1.80
2024-03-16T02:20:18.617Z,2.28
2024-03-16T02:22:48.818Z,1.35
2024-03-16T02:25:19.553Z,1.08
2024-03-16T02:27:49.181Z,1.23
2024-03-16T02:30:18.778Z,1.33
2024-03-16T02:32:48.128Z,1.15
2024-03-16T02:35:17.526Z,1.90
2024-03-16T02:37:46.794Z,1.30
2024-03-16T02:40:16.203Z,1.35
2024-03-16T02:42:45.550Z,1.70
2024-03-16T02:45:15.041Z,2.22
2024-03-16T02:47:45.149Z,1.50
2024-03-16T02:50:14.484Z,1.35
2024-03-16T02:52:43.841Z,1.13
2024-03-16T02:55:13.289Z,1.02
2024-03-16T02:57:42.629Z,1.38
2024-03-16T03:00:13.365Z,1.40
2024-03-16T03:02:42.711Z,1.33
2024-03-16T03:05:13.355Z,1.45
2024-03-16T03:07:42.681Z,1.35
2024-03-16T03:10:13.438Z,1.63
2024-03-16T03:12:42.818Z,1.17
2024-03-16T03:15:12.808Z,1.42
2024-03-16T03:17:42.089Z,1.48
2024-03-16T03:20:12.622Z,1.75
2024-03-16T03:22:41.920Z,1.63
2024-03-16T03:25:12.609Z,1.67
2024-03-16T03:27:42.162Z,1.67
2024-03-16T03:30:12.078Z,1.13
2024-03-16T03:32:41.352Z,1.40
2024-03-16T03:35:10.896Z,1.35
2024-03-16T03:37:40.140Z,1.08
2024-03-16T03:40:10.471Z,1.60
2024-03-16T03:42:46.811Z,1.40
2024-03-16T03:46:40.810Z,1.38
2024-03-16T03:49:16.208Z,1.30
2024-03-16T03:51:45.758Z,1.30
2024-03-16T03:54:15.109Z,1.67
2024-03-16T03:56:44.353Z,0.93
2024-03-16T03:59:14.207Z,1.58
2024-03-16T04:01:43.598Z,1.88
2024-03-16T04:04:12.937Z,1.40
2024-03-16T04:06:46.061Z,1.73
2024-03-16T04:09:15.680Z,1.48
2024-03-16T04:11:45.039Z,1.75
2024-03-16T04:14:14.327Z,1.08
2024-03-16T04:16:42.600Z,1.58
2024-03-16T04:19:12.186Z,1.45
2024-03-16T04:21:43.722Z,1.13
2024-03-16T04:24:13.192Z,1.00
2024-03-16T04:26:42.500Z,1.38
2024-03-16T04:29:11.896Z,1.38
2024-03-16T04:31:41.205Z,1.75
2024-03-16T04:34:11.273Z,1.65
2024-03-16T04:36:40.682Z,1.58
2024-03-16T04:39:10.036Z,2.13
2024-03-16T04:41:39.366Z,2.28
2024-03-16T04:44:08.696Z,2.25
2024-03-16T04:46:38.056Z,2.33
2024-03-16T04:49:08.511Z,1.60
2024-03-16T04:51:37.935Z,1.50
2024-03-16T04:54:07.529Z,1.40
2024-03-16T04:56:36.896Z,2.00
2024-03-16T04:59:06.221Z,1.70
2024-03-16T05:01:35.725Z,1.67
2024-03-16T05:04:05.494Z,2.08
2024-03-16T05:06:35.292Z,2.28
2024-03-16T05:09:07.223Z,3.72
2024-03-16T05:11:37.431Z,2.70
2024-03-16T05:14:08.694Z,2.08
2024-03-16T05:16:38.058Z,1.50
2024-03-16T05:19:08.437Z,2.38
2024-03-16T05:21:37.791Z,3.55
2024-03-16T05:24:07.532Z,9.25
2024-03-16T05:26:36.813Z,7.00
2024-03-16T05:29:07.214Z,4.80
2024-03-16T05:31:36.586Z,2.03
2024-03-16T05:34:06.831Z,2.80
2024-03-16T05:36:36.254Z,28.85
2024-03-16T05:39:05.690Z,45.15
2024-03-16T05:41:34.991Z,27.98
2024-03-16T05:44:04.225Z,23.42
2024-03-16T05:46:33.573Z,13.30
2024-03-16T05:49:02.891Z,4.75
2024-03-16T05:51:32.157Z,8.05
2024-03-16T05:54:01.571Z,4.55
2024-03-16T05:56:30.790Z,6.63
2024-03-16T05:59:00.021Z,6.07
2024-03-16T06:01:29.496Z,5.15
2024-03-16T06:03:58.926Z,4.38
2024-03-16T06:06:28.259Z,5.05
2024-03-16T06:08:57.742Z,5.00
2024-03-16T06:11:27.883Z,3.92
2024-03-16T06:13:57.184Z,2.35
2024-03-16T06:16:29.662Z,3.13
2024-03-16T06:19:00.494Z,4.50
2024-03-16T06:21:29.952Z,3.38
2024-03-16T06:23:59.334Z,3.33
2024-03-16T06:26:30.546Z,2.60
2024-03-16T06:29:06.816Z,3.55
2024-03-16T06:31:38.266Z,3.55
2024-03-16T06:34:08.103Z,3.55
2024-03-16T06:36:38.124Z,2.95
2024-03-16T06:39:12.386Z,3.60
2024-03-16T06:41:42.058Z,2.38
2024-03-16T06:46:24.736Z,4.15
2024-03-16T06:48:54.064Z,3.55
2024-03-16T06:51:23.468Z,3.75
2024-03-16T06:53:52.688Z,4.00
2024-03-16T06:56:22.007Z,4.45
2024-03-16T06:58:51.237Z,8.25
2024-03-16T07:01:22.204Z,4.57
2024-03-16T07:03:51.984Z,3.92
2024-03-16T07:06:21.336Z,2.83
2024-03-16T07:08:50.564Z,3.20
2024-03-16T07:11:20.659Z,3.97
2024-03-16T07:13:49.978Z,3.70
2024-03-16T07:16:19.348Z,3.60
2024-03-16T07:18:48.777Z,3.72
2024-03-16T07:21:20.861Z,2.95
2024-03-16T07:23:50.346Z,7.30
2024-03-16T07:26:19.578Z,3.97
2024-03-16T07:28:48.864Z,5.30
2024-03-16T07:31:18.113Z,4.88
2024-03-16T07:33:48.352Z,4.63
2024-03-16T07:36:17.674Z,3.67
2024-03-16T07:38:47.249Z,4.40
2024-03-16T07:41:16.637Z,3.83
2024-03-16T07:43:45.724Z,4.78
2024-03-16T07:46:15.248Z,5.45
2024-03-16T07:48:44.592Z,5.75
2024-03-16T07:51:15.574Z,4.38
2024-03-16T07:53:44.797Z,5.15
2024-03-16T07:56:14.073Z,3.55
2024-03-16T07:58:43.805Z,3.67
2024-03-16T08:01:14.254Z,5.15
2024-03-16T08:03:43.793Z,5.15
2024-03-16T08:06:13.078Z,5.88
2024-03-16T08:08:44.901Z,5.10
2024-03-16T08:11:14.637Z,3.65
2024-03-16T08:13:43.950Z,3.88
2024-03-16T08:16:13.323Z,4.03
2024-03-16T08:18:42.676Z,5.18
2024-03-16T08:21:14.385Z,5.03
2024-03-16T08:23:43.771Z,4.40
2024-03-16T08:26:14.410Z,5.97
2024-03-16T08:28:43.721Z,4.25
2024-03-16T08:31:13.193Z,4.00
2024-03-16T08:33:42.538Z,4.35
2024-03-16T08:36:12.017Z,4.50
2024-03-16T08:38:41.249Z,4.10
2024-03-16T08:41:10.539Z,4.88
2024-03-16T08:43:38.871Z,3.97
2024-03-16T08:46:08.447Z,4.47
2024-03-16T08:48:38.024Z,6.43
2024-03-16T08:51:07.405Z,4.75
2024-03-16T08:53:36.922Z,4.50
2024-03-16T08:56:08.401Z,3.97
2024-03-16T08:58:37.822Z,5.20
2024-03-16T09:01:08.073Z,4.53
2024-03-16T09:03:37.511Z,5.03
2024-03-16T09:06:08.993Z,8.52
2024-03-16T09:08:38.891Z,19.25
2024-03-16T09:11:08.197Z,4.03
2024-03-16T09:13:37.508Z,5.25
2024-03-16T09:16:07.870Z,14.85
2024-03-16T09:18:37.274Z,7.72
2024-03-16T09:21:07.176Z,5.22
2024-03-16T09:23:37.171Z,4.15
2024-03-16T09:26:06.664Z,5.57
2024-03-16T09:28:36.078Z,4.45
2024-03-16T09:31:06.954Z,5.05
2024-03-16T09:33:36.425Z,4.60
2024-03-16T09:36:07.478Z,3.75
2024-03-16T09:38:37.030Z,3.78
2024-03-16T09:41:06.756Z,4.60
